Time;durP1;ratioP1;P1;durP2;ratioP2;P2;SDS_P1;SDS_P2;PMS_P1;PMS_P2;Temp;Humidity;BMP_temperature;BMP_pressure;BME280_temperature;BME280_humidity;BME280_pressure;Samples;Min_cycle;Max_cycle;Signal;HPM_P1;HPM_P2
2022/07/02 00:01:25;;;;;;;14.40;10.93;;;17.00;1.00;;;;;;5093539;28;20414;-85
2022/07/02 00:03:56;;;;;;;15.00;10.57;;;17.00;1.00;;;;;;5097328;28;20431;-84
2022/07/02 00:06:31;;;;;;;14.63;10.50;;;16.90;1.00;;;;;;5089285;28;20423;-80
2022/07/02 00:09:03;;;;;;;15.07;10.87;;;17.00;1.00;;;;;;5075483;28;20463;-83
2022/07/02 00:11:35;;;;;;;14.00;11.00;;;16.90;1.00;;;;;;5076881;28;20455;-79
2022/07/02 00:14:05;;;;;;;14.00;10.80;;;16.90;1.00;;;;;;5081517;28;20474;-84
2022/07/02 00:16:33;;;;;;;14.27;11.20;;;16.90;1.00;;;;;;5098244;28;20592;-82
2022/07/02 00:19:04;;;;;;;15.80;10.70;;;16.90;1.00;;;;;;5095955;28;20515;-84
2022/07/02 00:21:39;;;;;;;14.23;11.30;;;16.90;1.00;;;;;;5100914;28;20557;-83
2022/07/02 00:24:10;;;;;;;14.13;10.60;;;16.90;1.00;;;;;;5099229;28;20563;-80
2022/07/02 00:26:50;;;;;;;16.50;11.47;;;16.90;1.00;;;;;;5095803;28;20466;-83
2022/07/02 00:29:23;;;;;;;13.63;10.20;;;16.80;1.00;;;;;;5097550;28;21289;-83
2022/07/02 00:31:50;;;;;;;15.33;11.00;;;16.80;1.00;;;;;;5098019;28;21036;-80
2022/07/02 00:34:23;;;;;;;13.13;10.10;;;16.80;1.00;;;;;;5097665;28;20454;-85
2022/07/02 00:36:52;;;;;;;13.10;10.17;;;16.80;1.00;;;;;;5097796;28;20477;-80
2022/07/02 00:39:22;;;;;;;13.90;9.47;;;16.80;1.00;;;;;;5097827;28;20922;-83
2022/07/02 00:41:55;;;;;;;13.57;10.40;;;16.70;1.00;;;;;;5095820;28;20867;-83
2022/07/02 00:44:28;;;;;;;15.07;11.20;;;16.80;1.00;;;;;;5100073;28;20958;-84
2022/07/02 00:46:55;;;;;;;11.90;9.47;;;16.70;1.00;;;;;;5099742;28;20827;-84
2022/07/02 00:49:24;;;;;;;13.37;10.40;;;16.70;1.00;;;;;;5101187;28;20487;-84
2022/07/02 00:51:53;;;;;;;13.70;10.40;;;16.60;1.00;;;;;;5098850;28;20454;-83
2022/07/02 00:54:24;;;;;;;15.33;11.03;;;16.70;1.00;;;;;;5093522;27;20431;-80
2022/07/02 00:56:53;;;;;;;14.73;10.10;;;16.70;1.00;;;;;;5098608;28;20466;-84
2022/07/02 00:59:27;;;;;;;14.50;11.17;;;16.60;1.00;;;;;;5094540;28;20427;-79
2022/07/02 01:01:54;;;;;;;14.47;11.00;;;16.60;1.00;;;;;;5096154;28;20433;-80
2022/07/02 01:04:29;;;;;;;13.57;11.00;;;16.50;1.00;;;;;;5096761;28;20482;-82
2022/07/02 01:07:05;;;;;;;14.70;10.63;;;16.40;1.00;;;;;;5098663;28;20532;-83
2022/07/02 01:12:28;;;;;;;14.50;11.50;;;16.40;1.00;;;;;;5097624;28;20414;-82
2022/07/02 01:14:56;;;;;;;17.37;11.70;;;16.30;1.00;;;;;;5096248;28;20447;-84
2022/07/02 01:17:25;;;;;;;14.03;11.10;;;16.30;1.00;;;;;;5097139;28;20427;-84
2022/07/02 01:19:52;;;;;;;14.43;11.10;;;16.30;1.00;;;;;;5096520;28;20932;-81
2022/07/02 01:22:26;;;;;;;14.90;10.97;;;16.30;1.00;;;;;;5089496;28;20423;-82
2022/07/02 01:24:54;;;;;;;14.30;11.50;;;16.20;1.00;;;;;;5094317;28;20617;-84
2022/07/02 01:27:24;;;;;;;15.00;11.33;;;16.30;1.00;;;;;;5096929;28;20696;-82
2022/07/02 01:29:52;;;;;;;14.40;10.63;;;16.20;1.00;;;;;;5085629;28;20606;-83
2022/07/02 01:32:23;;;;;;;15.07;11.27;;;16.20;1.00;;;;;;5071623;28;20475;-83
2022/07/02 01:34:54;;;;;;;14.10;10.57;;;16.20;1.00;;;;;;5075160;28;20947;-80
2022/07/02 01:37:25;;;;;;;14.40;11.43;;;16.10;1.00;;;;;;5083126;28;20449;-84
2022/07/02 01:39:52;;;;;;;15.10;11.63;;;16.00;1.00;;;;;;5097015;28;20463;-80
2022/07/02 01:42:31;;;;;;;16.07;11.60;;;16.00;1.00;;;;;;5095380;28;20558;-80
2022/07/02 01:45:04;;;;;;;15.53;12.33;;;15.90;1.00;;;;;;5095668;28;20466;-80
2022/07/02 01:47:37;;;;;;;18.07;11.97;;;16.00;1.00;;;;;;5097324;28;20513;-81
2022/07/02 01:50:06;;;;;;;16.20;11.40;;;16.00;1.00;;;;;;5095093;28;21168;-82
2022/07/02 01:52:36;;;;;;;16.90;12.13;;;15.90;1.00;;;;;;5099932;28;20487;-84
2022/07/02 01:55:15;;;;;;;15.50;11.63;;;15.90;1.00;;;;;;5097621;28;20888;-84
2022/07/02 01:57:44;;;;;;;17.40;12.97;;;15.80;1.00;;;;;;5098634;28;20471;-81
2022/07/02 02:00:15;;;;;;;18.53;13.10;;;15.80;1.00;;;;;;5093512;28;20454;-78
2022/07/02 02:02:46;;;;;;;18.77;12.77;;;15.80;1.00;;;;;;5094524;28;20553;-79
2022/07/02 02:05:14;;;;;;;15.57;11.17;;;15.80;1.00;;;;;;5094477;28;20406;-82
2022/07/02 02:07:46;;;;;;;15.93;12.60;;;15.80;1.00;;;;;;5096938;28;20548;-80
2022/07/02 02:10:14;;;;;;;17.07;12.57;;;15.80;1.00;;;;;;5096414;28;20617;-84
2022/07/02 02:12:44;;;;;;;15.23;12.67;;;15.80;1.00;;;;;;5096306;28;20458;-83
2022/07/02 02:15:14;;;;;;;16.40;12.67;;;15.80;1.00;;;;;;5097551;28;20442;-82
2022/07/02 02:17:44;;;;;;;16.73;12.33;;;15.70;1.00;;;;;;5084231;28;20499;-83
2022/07/02 02:20:14;;;;;;;17.43;12.37;;;15.70;1.00;;;;;;5095804;28;20427;-79
2022/07/02 02:22:45;;;;;;;17.40;12.77;;;15.60;1.00;;;;;;5093297;28;20473;-80
2022/07/02 02:25:16;;;;;;;16.37;12.50;;;15.60;1.00;;;;;;5094590;28;20411;-82
2022/07/02 02:27:45;;;;;;;16.00;12.30;;;15.60;1.00;;;;;;5086415;28;20580;-80
2022/07/02 02:30:16;;;;;;;18.50;15.10;;;15.70;1.00;;;;;;5098511;28;20477;-84
2022/07/02 02:32:46;;;;;;;16.37;13.03;;;15.60;1.00;;;;;;5069083;28;20858;-85
2022/07/02 02:35:15;;;;;;;16.20;12.10;;;15.60;1.00;;;;;;5094866;28;20441;-80
2022/07/02 02:37:42;;;;;;;15.70;12.30;;;15.60;1.00;;;;;;5085469;28;21398;-83
2022/07/02 02:40:12;;;;;;;16.57;13.77;;;15.60;1.00;;;;;;5095099;28;20455;-83
2022/07/02 02:42:45;;;;;;;19.70;14.63;;;15.60;1.00;;;;;;5095507;28;20501;-84
2022/07/02 02:45:16;;;;;;;16.87;13.23;;;15.50;1.00;;;;;;5097905;28;20481;-84
2022/07/02 02:47:43;;;;;;;16.70;13.27;;;15.50;1.00;;;;;;5078426;28;20463;-83
2022/07/02 02:50:14;;;;;;;19.23;14.23;;;15.50;1.00;;;;;;5079891;28;20428;-82
2022/07/02 02:52:41;;;;;;;16.70;12.80;;;15.40;1.00;;;;;;5077417;28;20919;-82
2022/07/02 02:55:14;;;;;;;17.03;13.27;;;15.40;1.00;;;;;;5078483;28;20465;-85
2022/07/02 02:57:41;;;;;;;16.50;13.10;;;15.40;1.00;;;;;;5074237;28;20521;-81
2022/07/02 03:00:14;;;;;;;18.00;13.60;;;15.40;1.00;;;;;;5076357;28;20451;-83
2022/07/02 03:02:42;;;;;;;16.13;13.40;;;15.30;1.00;;;;;;5076779;28;20971;-82
2022/07/02 03:05:14;;;;;;;16.33;13.60;;;15.30;1.00;;;;;;5077761;28;20452;-83
2022/07/02 03:07:41;;;;;;;19.23;13.80;;;15.30;1.00;;;;;;5074332;28;20449;-80
2022/07/02 03:10:17;;;;;;;18.10;12.73;;;15.20;1.00;;;;;;5073824;28;21253;-83
2022/07/02 03:12:45;;;;;;;17.87;14.43;;;15.20;1.00;;;;;;5068507;28;20567;-80
2022/07/02 03:15:13;;;;;;;16.33;12.87;;;15.20;1.00;;;;;;5080520;28;20554;-83
2022/07/02 03:17:40;;;;;;;18.50;14.57;;;15.20;1.00;;;;;;5080885;28;20473;-83
2022/07/02 03:20:13;;;;;;;18.87;14.53;;;15.20;1.00;;;;;;5080033;28;20467;-81
2022/07/02 03:22:40;;;;;;;18.00;14.90;;;15.20;1.00;;;;;;5079331;28;20549;-80
2022/07/02 03:25:15;;;;;;;19.00;14.50;;;15.20;1.00;;;;;;5082644;28;20423;-84
2022/07/02 03:27:43;;;;;;;21.87;17.33;;;15.20;1.00;;;;;;5082883;28;20458;-80
2022/07/02 03:30:15;;;;;;;22.10;17.17;;;15.20;1.00;;;;;;5080555;28;20424;-80
2022/07/02 03:32:42;;;;;;;21.80;17.23;;;15.20;1.00;;;;;;5078993;28;20485;-81
2022/07/02 03:35:14;;;;;;;18.20;14.57;;;15.10;1.00;;;;;;5074715;28;20462;-82
2022/07/02 03:37:44;;;;;;;20.70;16.23;;;15.10;1.00;;;;;;5085776;28;20988;-83
2022/07/02 03:40:15;;;;;;;19.70;14.93;;;15.10;1.00;;;;;;5079112;28;20424;-85
2022/07/02 03:42:43;;;;;;;19.97;16.27;;;15.10;1.00;;;;;;5079469;28;20490;-82
2022/07/02 03:45:20;;;;;;;19.13;14.70;;;15.10;1.00;;;;;;5080910;28;20429;-82
2022/07/02 03:47:47;;;;;;;18.50;15.03;;;15.10;1.00;;;;;;5041531;28;20535;-84
2022/07/02 03:50:15;;;;;;;19.53;14.90;;;15.20;1.00;;;;;;5048041;28;20524;-84
2022/07/02 03:52:41;;;;;;;20.80;16.57;;;15.20;1.00;;;;;;5058341;28;20460;-83
2022/07/02 03:55:15;;;;;;;21.00;16.57;;;15.20;1.00;;;;;;5058929;28;20417;-83
2022/07/02 03:57:43;;;;;;;20.83;16.00;;;15.10;1.00;;;;;;5061541;28;20484;-83
2022/07/02 04:00:20;;;;;;;22.10;15.70;;;15.10;1.00;;;;;;5060154;28;20429;-81
2022/07/02 04:02:47;;;;;;;21.77;16.13;;;15.10;1.00;;;;;;5045089;28;20516;-84
2022/07/02 04:05:17;;;;;;;20.70;16.90;;;15.20;1.00;;;;;;5070924;28;20439;-85
2022/07/02 04:07:44;;;;;;;23.50;16.67;;;15.10;1.00;;;;;;5061323;28;20445;-80
2022/07/02 04:10:15;;;;;;;20.00;16.20;;;15.20;1.00;;;;;;5057912;28;20441;-82
2022/07/02 04:12:45;;;;;;;22.37;15.87;;;15.20;1.00;;;;;;5059743;28;20483;-83
2022/07/02 04:15:15;;;;;;;20.40;15.30;;;15.20;1.00;;;;;;5059730;28;20500;-81
2022/07/02 04:17:41;;;;;;;20.23;16.60;;;15.20;1.00;;;;;;5045500;28;20561;-82
2022/07/02 04:20:14;;;;;;;21.27;15.80;;;15.10;1.00;;;;;;5039940;28;20421;-83
2022/07/02 04:22:46;;;;;;;20.60;16.47;;;15.10;1.00;;;;;;5036519;28;20465;-82
2022/07/02 04:25:13;;;;;;;18.60;14.93;;;15.10;1.00;;;;;;5056585;28;20459;-82
2022/07/02 04:27:47;;;;;;;21.50;16.97;;;15.10;1.00;;;;;;5057970;28;20560;-83
2022/07/02 04:30:15;;;;;;;20.67;15.90;;;15.20;1.00;;;;;;5062088;28;20452;-82
2022/07/02 04:32:44;;;;;;;18.73;15.10;;;15.20;1.00;;;;;;5059013;28;20563;-82
2022/07/02 04:35:15;;;;;;;20.63;15.80;;;15.30;1.00;;;;;;5056747;28;20404;-84
2022/07/02 04:37:42;;;;;;;19.10;15.10;;;15.30;1.00;;;;;;5060301;28;20559;-83
2022/07/02 04:40:15;;;;;;;18.40;15.30;;;15.40;1.00;;;;;;5054480;28;20433;-82
2022/07/02 04:42:42;;;;;;;21.37;16.37;;;15.50;1.00;;;;;;5056656;28;21292;-82
2022/07/02 04:45:16;;;;;;;20.77;15.90;;;15.50;1.00;;;;;;5060098;28;20479;-83
2022/07/02 04:47:42;;;;;;;18.77;14.73;;;15.70;1.00;;;;;;5055541;28;20871;-84
2022/07/02 04:50:14;;;;;;;20.00;14.40;;;15.70;1.00;;;;;;5058399;28;20455;-79
2022/07/02 04:52:41;;;;;;;19.50;15.57;;;15.70;1.00;;;;;;5049287;28;20453;-83
2022/07/02 04:55:13;;;;;;;18.57;14.30;;;15.70;1.00;;;;;;5069926;28;21122;-83
2022/07/02 04:57:40;;;;;;;19.03;15.10;;;15.80;1.00;;;;;;5058607;28;20429;-85
2022/07/02 05:00:13;;;;;;;18.97;14.83;;;15.90;1.00;;;;;;5059864;28;20835;-83
2022/07/02 05:02:41;;;;;;;20.67;15.67;;;16.00;1.00;;;;;;5060922;28;20519;-83
2022/07/02 05:05:13;;;;;;;21.27;15.07;;;16.00;1.00;;;;;;5060690;28;20856;-82
2022/07/02 05:07:40;;;;;;;19.10;14.20;;;16.00;1.00;;;;;;5060924;28;21150;-84
2022/07/02 05:10:14;;;;;;;17.80;14.47;;;16.10;1.00;;;;;;5060877;28;21239;-83
2022/07/02 05:12:47;;;;;;;18.80;15.97;;;16.10;1.00;;;;;;5052237;28;20521;-84
2022/07/02 05:15:57;;;;;;;;;;;;;;;;;;;;;
2022/07/02 05:18:28;;;;;;;18.57;14.33;;;16.20;1.00;;;;;;5024911;28;49394;-82
2022/07/02 05:21:01;;;;;;;16.17;13.30;;;16.30;1.00;;;;;;5038609;28;20443;-84
2022/07/02 05:23:37;;;;;;;18.03;14.47;;;16.50;1.00;;;;;;5055462;28;20474;-84
2022/07/02 05:28:57;;;;;;;17.70;13.50;;;16.60;1.00;;;;;;5059543;28;20871;-85
2022/07/02 05:31:24;;;;;;;17.10;13.13;;;16.80;1.00;;;;;;5051815;28;20468;-84
2022/07/02 05:33:57;;;;;;;15.30;11.77;;;16.90;1.00;;;;;;5057802;28;20469;-83
2022/07/02 05:36:27;;;;;;;16.97;12.30;;;17.00;1.00;;;;;;5050369;28;20419;-83
2022/07/02 05:39:00;;;;;;;18.37;13.07;;;17.10;1.00;;;;;;5062204;28;20467;-83
2022/07/02 05:41:35;;;;;;;15.53;12.73;;;17.10;1.00;;;;;;5059245;28;20496;-85
2022/07/02 05:44:01;;;;;;;17.87;11.90;;;17.20;1.00;;;;;;5058007;28;20463;-82
2022/07/02 05:49:36;;;;;;;;;;;;;;;;;;;;;
2022/07/02 05:52:06;;;;;;;14.50;11.10;;;17.60;1.00;;;;;;5074168;27;48862;-83
2022/07/02 05:54:35;;;;;;;14.10;10.80;;;17.70;1.00;;;;;;5069173;28;20418;-83
2022/07/02 05:57:06;;;;;;;13.93;10.57;;;17.90;1.00;;;;;;5090720;28;20559;-82
2022/07/02 05:59:40;;;;;;;15.70;12.37;;;18.00;1.00;;;;;;5065723;28;20428;-83
2022/07/02 06:02:26;;;;;;;;;;;;;;;;;;;;;
2022/07/02 06:04:56;;;;;;;13.07;9.93;;;18.10;1.00;;;;;;5079103;28;50085;-81
2022/07/02 06:07:57;;;;;;;15.40;11.47;;;18.20;1.00;;;;;;5075356;28;20539;-82
2022/07/02 06:10:28;;;;;;;14.33;11.10;;;18.40;1.00;;;;;;5063767;28;20587;-83
2022/07/02 06:13:03;;;;;;;12.47;10.03;;;18.50;1.00;;;;;;5074272;28;20446;-85
2022/07/02 06:15:36;;;;;;;14.50;10.53;;;18.70;1.00;;;;;;5076062;28;21003;-81
2022/07/02 06:18:05;;;;;;;15.10;9.20;;;18.80;1.00;;;;;;5077126;28;20546;-81
2022/07/02 06:20:46;;;;;;;11.80;9.17;;;18.80;1.00;;;;;;5078647;28;20447;-85
2022/07/02 06:23:19;;;;;;;12.00;9.50;;;19.00;1.00;;;;;;5071372;28;20427;-80
2022/07/02 06:26:00;;;;;;;11.83;9.40;;;19.00;1.00;;;;;;5075811;28;20554;-82
2022/07/02 06:28:48;;;;;;;12.27;9.70;;;19.10;1.00;;;;;;5078805;28;20471;-86
2022/07/02 06:31:21;;;;;;;14.10;11.20;;;19.20;1.00;;;;;;5076381;28;20501;-84
2022/07/02 06:37:26;;;;;;;11.20;9.00;;;19.30;1.00;;;;;;4984973;28;20591;-80
2022/07/02 06:40:46;;;;;;;13.10;9.47;;;19.50;1.00;;;;;;5079954;28;20896;-86
2022/07/02 06:43:26;;;;;;;12.10;8.93;;;19.40;1.00;;;;;;5084102;28;20462;-86
2022/07/02 06:49:58;;;;;;;13.10;9.87;;;19.70;1.00;;;;;;4999982;28;20423;-85
2022/07/02 06:55:35;;;;;;;10.90;8.80;;;19.90;1.00;;;;;;5051960;28;20538;-82
2022/07/02 06:58:08;;;;;;;11.80;7.83;;;20.10;1.00;;;;;;5060705;28;20504;-82
2022/07/02 07:00:46;;;;;;;11.53;9.37;;;20.20;1.00;;;;;;5051671;28;21550;-86
2022/07/02 07:03:27;;;;;;;12.23;8.80;;;20.30;1.00;;;;;;5058639;28;20456;-82
2022/07/02 07:06:24;;;;;;;11.47;8.87;;;20.40;1.00;;;;;;5057059;28;20908;-84
2022/07/02 07:09:18;;;;;;;11.33;8.80;;;20.50;1.00;;;;;;4990898;28;20448;-84
2022/07/02 07:11:45;;;;;;;10.67;7.10;;;20.50;1.00;;;;;;5056050;28;20870;-81
2022/07/02 07:14:24;;;;;;;10.80;7.70;;;20.50;1.00;;;;;;5096971;28;20475;-86
2022/07/02 07:16:59;;;;;;;10.17;7.67;;;20.60;1.00;;;;;;5087915;28;20415;-82
2022/07/02 07:19:26;;;;;;;9.93;7.73;;;20.70;1.00;;;;;;5097272;28;20457;-80
2022/07/02 07:21:55;;;;;;;9.73;7.43;;;20.80;1.00;;;;;;5096573;28;20450;-80
2022/07/02 07:24:23;;;;;;;13.17;7.10;;;20.80;1.00;;;;;;5097906;28;20964;-81
2022/07/02 07:26:57;;;;;;;8.50;6.57;;;20.90;1.00;;;;;;5101887;27;20461;-80
2022/07/02 07:29:28;;;;;;;9.10;6.90;;;21.10;1.00;;;;;;5101775;28;20562;-84
2022/07/02 07:32:07;;;;;;;10.30;6.63;;;21.10;1.00;;;;;;5082844;28;20445;-85
2022/07/02 07:34:45;;;;;;;9.57;6.83;;;21.20;1.00;;;;;;5079003;28;20539;-81
2022/07/02 07:37:17;;;;;;;8.40;5.20;;;21.20;1.00;;;;;;5085194;28;20441;-85
2022/07/02 07:39:47;;;;;;;12.70;10.10;;;21.40;1.00;;;;;;5104805;28;20526;-85
2022/07/02 07:42:16;;;;;;;8.80;4.90;;;21.50;1.00;;;;;;5104148;28;20569;-85
2022/07/02 07:44:42;;;;;;;7.30;4.57;;;21.60;1.00;;;;;;5104291;28;20472;-86
2022/07/02 07:47:17;;;;;;;8.23;4.30;;;21.80;1.00;;;;;;5091087;28;20560;-84
2022/07/02 07:49:44;;;;;;;8.00;3.77;;;21.80;1.00;;;;;;5070596;28;20459;-80
2022/07/02 07:52:15;;;;;;;8.37;4.20;;;21.90;1.00;;;;;;5081613;28;20424;-80
2022/07/02 07:54:43;;;;;;;8.27;4.30;;;22.00;1.00;;;;;;5072359;28;20553;-81
2022/07/02 07:57:17;;;;;;;5.80;2.60;;;22.20;1.00;;;;;;5091278;28;20458;-82
2022/07/02 07:59:58;;;;;;;6.83;3.30;;;22.30;1.00;;;;;;5080286;28;20572;-85
2022/07/02 08:02:26;;;;;;;8.77;3.83;;;22.40;1.00;;;;;;5079381;28;20470;-80
2022/07/02 08:04:55;;;;;;;6.93;4.00;;;22.50;1.00;;;;;;5072372;28;20441;-84
2022/07/02 08:07:22;;;;;;;6.10;3.40;;;22.60;1.00;;;;;;5075923;28;20467;-81
2022/07/02 08:09:58;;;;;;;5.93;3.80;;;22.70;1.00;;;;;;5074859;28;20546;-84
2022/07/02 08:12:40;;;;;;;7.87;3.40;;;22.80;1.00;;;;;;5082095;28;20541;-83
2022/07/02 08:15:18;;;;;;;6.70;3.40;;;22.80;1.00;;;;;;5075816;28;20479;-83
2022/07/02 08:17:46;;;;;;;5.07;2.97;;;23.00;1.00;;;;;;5079599;28;20965;-80
2022/07/02 08:20:16;;;;;;;6.03;3.30;;;23.00;1.00;;;;;;5082642;28;20445;-80
2022/07/02 08:22:46;;;;;;;4.60;2.03;;;23.20;1.00;;;;;;5078524;28;20553;-81
2022/07/02 08:25:19;;;;;;;8.30;2.30;;;23.20;1.00;;;;;;5080240;28;20423;-81
2022/07/02 08:27:48;;;;;;;5.20;3.00;;;23.30;1.00;;;;;;5075804;28;20977;-81
2022/07/02 08:30:16;;;;;;;5.03;3.10;;;23.50;1.00;;;;;;5078710;28;20423;-84
2022/07/02 08:32:43;;;;;;;5.70;2.90;;;23.70;1.00;;;;;;5067022;27;20490;-85
2022/07/02 08:35:19;;;;;;;5.50;3.10;;;23.80;1.00;;;;;;5083484;28;20495;-87
2022/07/02 08:38:36;;;;;;;6.60;3.53;;;23.80;1.00;;;;;;5069742;27;20525;-86
2022/07/02 08:43:57;;;;;;;5.20;2.40;;;24.30;1.00;;;;;;5069831;28;20459;-86
2022/07/02 08:46:26;;;;;;;7.27;2.80;;;24.40;1.00;;;;;;5083466;28;20486;-84
2022/07/02 08:49:01;;;;;;;4.67;2.80;;;24.40;1.00;;;;;;5077268;28;21287;-85
2022/07/02 08:51:29;;;;;;;4.30;2.50;;;24.70;1.00;;;;;;5073879;28;20447;-84
2022/07/02 08:53:56;;;;;;;6.10;3.17;;;24.90;1.00;;;;;;5071136;28;20497;-86
2022/07/02 08:56:27;;;;;;;7.33;3.73;;;24.90;1.00;;;;;;5073758;28;20503;-85
2022/07/02 08:58:57;;;;;;;4.40;2.40;;;24.80;1.00;;;;;;5077437;28;20501;-85
2022/07/02 09:01:25;;;;;;;5.50;2.43;;;24.60;1.00;;;;;;5074166;28;20972;-85
2022/07/02 09:03:53;;;;;;;4.17;2.33;;;24.40;1.00;;;;;;5070162;28;20482;-84
2022/07/02 09:06:25;;;;;;;5.20;2.73;;;24.20;1.00;;;;;;5076828;28;20622;-85
2022/07/02 09:08:56;;;;;;;5.63;2.73;;;24.20;1.00;;;;;;5074570;28;20425;-85
2022/07/02 09:11:26;;;;;;;4.20;2.43;;;24.40;1.00;;;;;;5057000;28;20428;-82
2022/07/02 09:14:04;;;;;;;5.17;2.33;;;24.70;1.00;;;;;;5057760;28;20430;-85
2022/07/02 09:16:31;;;;;;;5.03;2.60;;;24.80;1.00;;;;;;5054693;28;20539;-85
2022/07/02 09:18:58;;;;;;;4.00;2.47;;;24.80;1.00;;;;;;5059581;28;20472;-84
2022/07/02 09:21:26;;;;;;;6.47;2.63;;;24.80;1.00;;;;;;5059863;28;20453;-85
2022/07/02 09:23:53;;;;;;;4.10;2.10;;;24.90;1.00;;;;;;5058023;28;21106;-85
2022/07/02 09:26:27;;;;;;;4.60;2.23;;;25.10;1.00;;;;;;5059980;28;20523;-86
2022/07/02 09:28:59;;;;;;;4.80;2.07;;;25.10;1.00;;;;;;5076309;28;20472;-84
2022/07/02 09:31:27;;;;;;;7.87;2.87;;;25.30;1.00;;;;;;5078980;28;20440;-84
2022/07/02 09:33:55;;;;;;;6.60;2.47;;;25.40;1.00;;;;;;5066174;28;20467;-83
2022/07/02 09:36:26;;;;;;;4.53;1.80;;;25.50;1.00;;;;;;5060151;28;20484;-86
2022/07/02 09:38:55;;;;;;;3.97;1.70;;;25.50;1.00;;;;;;5058175;28;20455;-84
2022/07/02 09:41:26;;;;;;;3.97;2.03;;;25.70;1.00;;;;;;5058947;28;20507;-85
2022/07/02 09:43:55;;;;;;;5.20;2.00;;;26.10;1.00;;;;;;5061081;28;21074;-82
2022/07/02 09:46:50;;;;;;;4.53;1.73;;;27.30;1.00;;;;;;5058970;28;20417;-82
2022/07/02 09:49:27;;;;;;;3.73;2.20;;;29.10;1.00;;;;;;5045962;28;20571;-86
2022/07/02 09:51:56;;;;;;;4.97;2.13;;;30.60;1.00;;;;;;5061223;28;20468;-87
2022/07/02 09:54:26;;;;;;;3.70;1.70;;;31.90;1.00;;;;;;5061285;28;20421;-87
2022/07/02 09:57:07;;;;;;;4.30;2.30;;;33.00;1.00;;;;;;5055384;28;20535;-86
2022/07/02 09:59:37;;;;;;;2.80;1.70;;;34.00;1.00;;;;;;5056606;28;20475;-86
2022/07/02 10:02:25;;;;;;;3.50;1.63;;;34.60;1.00;;;;;;5060506;28;20444;-85
2022/07/02 10:04:55;;;;;;;4.87;2.00;;;35.10;1.00;;;;;;5046680;28;20453;-85
2022/07/02 10:07:29;;;;;;;2.50;1.20;;;35.40;1.00;;;;;;5036765;28;20445;-84
2022/07/02 10:09:55;;;;;;;2.83;1.30;;;35.00;1.00;;;;;;5057491;28;20464;-86
2022/07/02 10:12:27;;;;;;;3.07;1.30;;;35.70;1.00;;;;;;5057287;28;20527;-86
2022/07/02 10:15:09;;;;;;;3.17;1.30;;;36.10;1.00;;;;;;5062575;28;20432;-82
2022/07/02 10:17:39;;;;;;;2.10;1.63;;;36.60;1.00;;;;;;5055169;28;20459;-85
2022/07/02 10:20:12;;;;;;;3.00;2.30;;;37.10;1.00;;;;;;5053820;28;20515;-86
2022/07/02 10:22:47;;;;;;;3.93;1.73;;;37.70;1.00;;;;;;5060217;28;20449;-87
2022/07/02 10:25:18;;;;;;;2.80;1.47;;;37.70;1.00;;;;;;5058217;28;20465;-86
2022/07/02 10:27:47;;;;;;;2.93;1.80;;;37.50;1.00;;;;;;5053223;28;20429;-87
2022/07/02 10:30:16;;;;;;;2.30;1.63;;;37.70;1.00;;;;;;5057061;28;20542;-86
2022/07/02 10:32:58;;;;;;;2.57;1.50;;;38.10;1.00;;;;;;5060335;28;20420;-86
2022/07/02 10:35:26;;;;;;;3.23;1.90;;;38.40;1.00;;;;;;5058611;28;20432;-83
2022/07/02 10:37:58;;;;;;;2.67;1.50;;;38.60;1.00;;;;;;5056051;28;20456;-84
2022/07/02 10:40:29;;;;;;;2.10;1.30;;;38.40;1.00;;;;;;5056972;28;20487;-87
2022/07/02 10:42:59;;;;;;;1.90;1.20;;;37.90;1.00;;;;;;5061972;28;20534;-85
2022/07/02 10:45:27;;;;;;;2.37;1.43;;;38.00;1.00;;;;;;5058045;28;20443;-85
2022/07/02 10:48:10;;;;;;;2.97;1.40;;;38.00;1.00;;;;;;5061612;28;20451;-86
2022/07/02 10:50:46;;;;;;;2.80;1.73;;;38.70;1.00;;;;;;5068757;28;21073;-86
2022/07/02 10:53:17;;;;;;;3.80;2.07;;;38.90;1.00;;;;;;5087925;28;21229;-87
2022/07/02 10:56:07;;;;;;;2.50;1.90;;;38.50;1.00;;;;;;5080186;28;20446;-85
2022/07/02 10:58:35;;;;;;;2.80;2.33;;;38.70;1.00;;;;;;5099220;28;20451;-84
2022/07/02 11:01:13;;;;;;;3.13;2.07;;;37.30;1.00;;;;;;5093371;28;20427;-84
2022/07/02 11:03:53;;;;;;;2.80;1.43;;;35.10;1.00;;;;;;5097108;28;20469;-85
2022/07/02 11:06:28;;;;;;;3.00;1.60;;;33.30;1.00;;;;;;5092943;28;20466;-84
2022/07/02 11:08:58;;;;;;;2.60;1.83;;;32.10;1.00;;;;;;5093323;28;20866;-86
2022/07/02 11:12:05;;;;;;;2.63;1.80;;;31.70;1.00;;;;;;5099327;28;20469;-86
2022/07/02 11:14:33;;;;;;;7.90;2.90;;;30.90;1.00;;;;;;5085415;28;20468;-88
2022/07/02 11:17:05;;;;;;;3.10;1.90;;;30.10;1.00;;;;;;5093793;28;20459;-85
2022/07/02 11:19:35;;;;;;;3.63;2.30;;;29.50;1.00;;;;;;5095011;28;20466;-85
2022/07/02 11:22:14;;;;;;;3.20;1.80;;;29.50;1.00;;;;;;5097285;28;20482;-80
2022/07/02 11:25:11;;;;;;;5.67;1.90;;;31.30;1.00;;;;;;5091839;28;20485;-83
2022/07/02 11:28:07;;;;;;;3.63;1.80;;;33.80;1.00;;;;;;5085236;28;20462;-84
2022/07/02 11:31:12;;;;;;;2.47;1.47;;;36.30;1.00;;;;;;5070258;28;20463;-88
2022/07/02 12:08:28;;;;;;;2.20;1.50;;;41.90;1.00;;;;;;4853070;29;20994;-87
2022/07/02 12:11:33;;;;;;;2.13;1.60;;;42.20;1.00;;;;;;4950929;28;20493;-84
2022/07/02 12:14:28;;;;;;;2.70;1.63;;;42.40;1.00;;;;;;5016843;28;20504;-84
2022/07/02 12:20:49;;;;;;;1.53;1.43;;;41.70;1.00;;;;;;5007171;28;20454;-86
2022/07/02 12:27:26;;;;;;;1.90;1.37;;;41.90;1.00;;;;;;5025076;28;20458;-87
2022/07/02 12:30:29;;;;;;;3.13;1.07;;;41.80;1.00;;;;;;4988013;28;20450;-84
2022/07/02 12:44:10;;;;;;;1.57;1.30;;;40.00;1.00;;;;;;4931288;28;21130;-84
2022/07/02 13:14:49;;;;;;;2.00;1.60;;;38.30;1.00;;;;;;4925682;28;20467;-86
2022/07/02 15:27:20;;;;;;;2.40;1.60;;;39.70;1.00;;;;;;4966255;28;20432;-85
2022/07/02 15:30:36;;;;;;;;;;;;;;;;;;;;;
2022/07/02 15:33:07;;;;;;;3.50;1.80;;;39.70;1.00;;;;;;4884351;28;39687;-84
2022/07/02 15:38:46;;;;;;;1.97;1.50;;;38.90;1.00;;;;;;4823257;29;20448;-83
2022/07/02 15:41:18;;;;;;;5.80;1.77;;;37.90;1.00;;;;;;4930023;28;20496;-84
2022/07/02 15:44:21;;;;;;;3.60;1.90;;;37.90;1.00;;;;;;4926631;28;20525;-84
2022/07/02 16:00:41;;;;;;;2.37;1.30;;;38.30;1.00;;;;;;4895917;29;20466;-85
2022/07/02 16:03:12;;;;;;;3.90;1.63;;;38.10;1.00;;;;;;4906153;29;20564;-88
2022/07/02 16:06:29;;;;;;;1.50;1.20;;;37.90;1.00;;;;;;4898042;29;20904;-85
2022/07/02 16:09:28;;;;;;;3.20;1.27;;;38.10;1.00;;;;;;4890079;28;20476;-87
2022/07/02 16:15:41;;;;;;;1.50;1.03;;;38.50;1.00;;;;;;4731735;29;20477;-85
2022/07/02 16:18:52;;;;;;;;;;;;;;;;;;;;;
2022/07/02 16:21:43;;;;;;;2.83;2.20;;;38.30;1.00;;;;;;4912613;28;50747;-85
2022/07/02 16:24:11;;;;;;;2.23;1.73;;;38.10;1.00;;;;;;4953224;28;20482;-82
2022/07/02 16:27:00;;;;;;;2.47;1.27;;;38.00;1.00;;;;;;4934133;28;20458;-85
2022/07/02 16:32:29;;;;;;;3.70;1.63;;;37.70;1.00;;;;;;4972316;28;20476;-84
2022/07/02 16:35:12;;;;;;;3.13;1.30;;;36.80;1.00;;;;;;4976558;28;20437;-82
2022/07/02 16:37:43;;;;;;;2.23;1.50;;;36.60;1.00;;;;;;4972951;28;20417;-85
2022/07/02 16:40:22;;;;;;;2.37;1.50;;;36.60;1.00;;;;;;4977801;28;20468;-86
2022/07/02 16:43:03;;;;;;;1.97;1.10;;;36.60;1.00;;;;;;4953936;28;20451;-84
2022/07/02 16:46:12;;;;;;;2.10;1.40;;;36.40;1.00;;;;;;4943321;28;20483;-83
2022/07/02 16:49:05;;;;;;;1.70;1.23;;;36.00;1.00;;;;;;4933781;28;20548;-85
2022/07/02 16:52:22;;;;;;;2.67;1.20;;;36.10;1.00;;;;;;4958360;28;20603;-88
2022/07/02 16:55:09;;;;;;;1.87;1.20;;;36.20;1.00;;;;;;4942111;28;20474;-86
2022/07/02 16:58:11;;;;;;;4.70;3.90;;;36.00;1.00;;;;;;4942431;28;20436;-87
2022/07/02 17:01:11;;;;;;;3.50;1.40;;;35.90;1.00;;;;;;4880739;28;20488;-87
2022/07/02 17:04:01;;;;;;;2.97;2.00;;;35.70;1.00;;;;;;4892295;28;20596;-88
2022/07/02 17:06:39;;;;;;;8.60;1.83;;;35.50;1.00;;;;;;4962624;28;20478;-83
2022/07/02 17:09:27;;;;;;;2.80;1.70;;;35.40;1.00;;;;;;4969732;28;20931;-87
2022/07/02 17:12:01;;;;;;;9.03;2.03;;;35.20;1.00;;;;;;4967682;28;20495;-87
2022/07/02 17:14:40;;;;;;;2.63;2.00;;;34.80;1.00;;;;;;4977864;28;20530;-87
2022/07/02 17:17:39;;;;;;;2.50;1.73;;;34.10;1.00;;;;;;4966703;28;20475;-82
2022/07/02 17:20:12;;;;;;;3.77;1.90;;;33.40;1.00;;;;;;4951909;28;20473;-85
2022/07/02 17:22:50;;;;;;;2.63;1.60;;;32.60;1.00;;;;;;4965517;28;20452;-85
2022/07/02 17:26:00;;;;;;;2.30;1.57;;;31.90;1.00;;;;;;4972620;28;20426;-83
2022/07/02 17:29:02;;;;;;;6.93;6.23;;;31.10;1.00;;;;;;4930916;28;20425;-86
2022/07/02 17:31:59;;;;;;;4.37;2.10;;;30.40;1.00;;;;;;4969049;28;20471;-83
2022/07/02 17:34:41;;;;;;;3.30;2.10;;;29.70;1.00;;;;;;4953941;28;20523;-81
2022/07/02 17:43:10;;;;;;;3.93;1.90;;;28.90;1.00;;;;;;4958001;28;20998;-86
2022/07/02 17:51:20;;;;;;;5.13;2.30;;;28.30;1.00;;;;;;4941301;28;21686;-86
2022/07/02 17:54:22;;;;;;;4.73;2.10;;;28.00;1.00;;;;;;4968024;28;20562;-83
2022/07/02 18:00:42;;;;;;;3.83;2.23;;;27.70;1.00;;;;;;4849966;29;20938;-87
2022/07/02 18:06:42;;;;;;;4.33;1.97;;;27.30;1.00;;;;;;4906273;28;20479;-86
2022/07/02 18:32:06;;;;;;;5.20;2.50;;;26.30;1.00;;;;;;4929336;28;20241;-86